Weather observations for the past three days for
Barksdale Air Force Base
Imperial (Metric)
Date Time (cdt) Wind (mph) Vis. (mi.) Weather Sky Cond. Temperature (ºF) Relative Humidity Wind Chill (°F) Heat Index (°F) Pressure Precipitation (in)
Air Dwpt 6 hour altimeter (in) sea level (mb) 1 hr 3 hr 6 hr
Max. Min.
01 15:55 E 13 10.00 Partly Cloudy SCT060 98.4 69.1 39% 105 29.95 1014.4
01 14:55 E 9 G 18 9.00 A Few Clouds FEW060 99 67.3 36% 104 29.97 1015.1
01 13:55 SE 15 9.00 A Few Clouds FEW060 96.6 67.5 39% 101 29.98 1015.4
01 11:55 SE 12 10.00 Fair CLR 94.1 70.7 47% 101 30.03 1017.1
01 10:55 E 7 10.00 A Few Clouds FEW170 91.6 70.9 96.3 76.5 51% 98 30.04 1017.4
01 09:55 E 3 10.00 Fair CLR 88.3 72.7 60% 96 30.05 1017.8
01 08:55 NE 3 10.00 A Few Clouds FEW170 84.2 73.2 70% 91 30.05 1017.8
01 07:55 Calm 10.00 Fair CLR 78.4 73.2 84% 81 30.03 1017.1
01 06:55 E 3 10.00 A Few Clouds FEW100 76.5 72 86% 77 30.02 1016.8
01 05:55 Calm 10.00 Fair CLR 76.1 72.1 88% 76 30.02 1016.8
01 04:55 Calm 10.00 Fair CLR 77 71.8 84% 78 30.01 1016.4
01 03:55 Calm 10.00 Fair CLR 78.8 71.6 79% 82 30 1016.1
01 02:55 E 3 10.00 Fair CLR 79.7 71.8 77% 83 30.01 1016.4
01 01:55 SE 5 10.00 Fair CLR 80.2 71.1 74% 84 30 1016.1
01 00:55 SE 8 10.00 Fair CLR 81 71.4 94.6 81 73% 85 30 1016.1
31 23:55 Calm 10.00 Fair CLR 81.9 71.4 71% 86 29.98 1015.4
31 22:55 SE 6 10.00 Fair CLR 83.5 70.9 66% 88 29.98 1015.4
31 21:55 E 6 10.00 Fair CLR 84.2 71.6 66% 90 29.98 1015.4
31 20:55 E 5 10.00 Fair CLR 85.6 70.5 61% 91 29.96 1014.7
31 19:55 Calm 10.00 Fair CLR 90.3 67.8 48% 94 29.95 1014.4
31 17:55 E 9 10.00 Fair CLR 97.3 67.5 38% 102 29.95 1014.4
31 16:55 SE 9 10.00 Fair CLR 98.8 67.8 37% 104 29.96 1014.7
31 15:55 E 12 10.00 Fair CLR 98.6 66.2 35% 103 29.97 1015.1
31 14:55 SE 8 10.00 A Few Clouds FEW065 97.9 67.1 37% 102 29.99 1015.7
31 13:55 E 5 10.00 Partly Cloudy SCT100 94.1 68.7 44% 99 30.01 1016.4
31 12:55 NE 3 10.00 A Few Clouds FEW055 95.2 67.6 96.4 74.8 41% 100 30.03 1017.1
31 11:55 Calm 10.00 Fair CLR 93.9 68 43% 98 30.05 1017.8
31 10:55 Calm 10.00 Fair CLR 91.6 69.6 49% 97 30.06 1018.1
31 09:55 Calm 10.00 Fair CLR 88.7 70.9 56% 95 30.05 1017.8
31 08:55 S 5 10.00 Fair CLR 83.8 72.5 69% 90 30.05 1017.8
31 07:55 Calm 10.00 Fair CLR 77.9 72 82% 80 30.03 1017.1
31 06:55 Calm 9.00 Fair CLR 75.4 70.5 80.2 75.4 85% 76 30.01 1016.4
31 05:55 Calm 10.00 Fair CLR 76.5 70.2 81% 78 30 1016.1
31 04:55 SE 3 10.00 Fair CLR 77.4 70.3 79% 79 29.99 1015.7
31 03:55 SE 6 10.00 Partly Cloudy SCT100 78.1 69.8 76% 80 29.98 1015.4
31 02:55 S 7 10.00 Fair CLR 79.2 69.6 73% 82 29.99 1015.7
31 01:55 SE 8 10.00 A Few Clouds FEW100 79.7 68.9 70% 82 29.99 1015.7
31 00:55 SE 6 10.00 Partly Cloudy SCT100 80.1 69.3 95.2 79.9 70% 83 29.99 1015.7
30 23:55 SE 6 10.00 Fair CLR 81.7 69.6 67% 85 29.98 1015.4
30 22:55 SE 6 10.00 Fair CLR 83.5 70.3 65% 88 29.98 1015.4
30 21:55 E 7 10.00 Fair CLR 85.5 68.9 58% 89 29.96 1014.7
30 20:55 E 6 10.00 Fair CLR 86.5 68.4 55% 90 29.94 1014.1
30 19:55 E 5 10.00 Fair CLR 89.4 67.1 48% 93 29.92 1013.4
30 18:55 SE 5 10.00 Fair CLR 95.4 64 100 95.4 36% 97 29.92 1013.4
30 17:55 SE 9 10.00 Fair CLR 98.2 64 33% 101 29.92 1013.4
30 16:55 E 6 10.00 Fair CLR 99.5 63.5 31% 102 29.92 1013.4
30 15:55 E 5 10.00 Fair CLR 99.5 62.4 30% 101 29.94 1014.0
30 14:55 NW 3 10.00 A Few Clouds FEW065 98.1 65.7 35% 102 29.96 1014.7
30 13:55 S 7 10.00 A Few Clouds FEW090 97.3 68.2 39% 103 30 1016.1
30 12:55 S 3 10.00 Fair CLR 96.6 68.9 96.8 74.5 41% 102 30.01 1016.4
30 10:55 Calm 10.00 Mostly Cloudy BKN065 89.6 71.8 56% 97 30.03 1017.1
30 09:55 S 3 10.00 Fair CLR 87.3 73.6 64% 95 30.04 1017.5
30 08:55 S 5 10.00 Fair CLR 82.8 72 70% 88 30.05 1017.8
30 07:55 SE 5 10.00 Fair CLR 77.9 70.3 78% 80 30.03 1017.1
30 06:55 Calm 10.00 Fair CLR 74.7 68.7 78.3 74.3 82% 30.02 1016.8
30 05:55 SE 6 10.00 Fair CLR 75.4 68.4 79% 76 30 1016.1
30 04:55 S 5 10.00 A Few Clouds FEW060 77.4 68.7 75% 79 30 1016.1
30 03:55 SE 6 10.00 Fair CLR 76.8 68.5 76% 78 30 1016.1
30 02:55 SE 5 10.00 Fair CLR 77 68.4 75% 79 30 1016.1
30 01:55 Calm 10.00 Fair CLR 77.7 67.5 71% 80 30.01 1016.4
30 00:55 SE 3 10.00 Fair CLR 77 67.6 93.7 77 73% 79 30.01 1016.4
29 23:55 SE 5 10.00 Fair CLR 79.3 67.8 68% 82 30 1016.1
29 22:55 E 3 10.00 Fair CLR 83.1 67.3 59% 86 30 1016.1
29 21:55 E 3 10.00 Fair CLR 81.9 65.1 57% 84 29.99 1015.8
29 20:55 E 6 10.00 Fair CLR 85.5 64.6 50% 87 29.97 1015.1
29 19:55 E 5 10.00 Fair CLR 88.3 64.9 46% 90 29.96 1014.8
29 18:55 E 7 10.00 Fair CLR 93.9 63.7 99.9 93.9 37% 96 29.95 1014.4
29 17:55 E 3 10.00 Fair CLR 95.7 60.1 31% 96 29.95 1014.4
29 16:55 Calm 10.00 Fair CLR 99.1 58.1 26% 99 29.95 1014.4
Date Time (cdt) Wind (mph) Vis. (mi.) Weather Sky Cond. Air Dwpt Max. Min. Relative Humidity Wind Chill (°F) Heat Index (°F) altimeter (in) sea level (mb) 1 hr 3 hr 6 hr
6 hour
Temperature (ºF) Pressure Precipitation (in)